sensor_id;sensor_type;location;lat;lon;timestamp;P1;durP1;ratioP1;P2;durP2;ratioP2
773;SDS011;370;48.810;9.150;2023-05-28T00:01:20;3.40;;;1.92;;
773;SDS011;370;48.810;9.150;2023-05-28T00:03:48;5.78;;;2.03;;
773;SDS011;370;48.810;9.150;2023-05-28T00:06:16;14.00;;;2.42;;
773;SDS011;370;48.810;9.150;2023-05-28T00:08:43;5.68;;;2.13;;
773;SDS011;370;48.810;9.150;2023-05-28T00:11:11;6.15;;;2.15;;
773;SDS011;370;48.810;9.150;2023-05-28T00:13:38;7.05;;;1.98;;
773;SDS011;370;48.810;9.150;2023-05-28T00:16:05;19.10;;;2.78;;
773;SDS011;370;48.810;9.150;2023-05-28T00:18:32;6.85;;;2.28;;
773;SDS011;370;48.810;9.150;2023-05-28T00:20:59;10.27;;;3.20;;
773;SDS011;370;48.810;9.150;2023-05-28T00:23:28;4.78;;;2.55;;
773;SDS011;370;48.810;9.150;2023-05-28T00:25:55;7.25;;;2.28;;
773;SDS011;370;48.810;9.150;2023-05-28T00:28:22;8.07;;;2.30;;
773;SDS011;370;48.810;9.150;2023-05-28T00:30:49;6.68;;;1.98;;
773;SDS011;370;48.810;9.150;2023-05-28T00:33:17;5.38;;;2.05;;
773;SDS011;370;48.810;9.150;2023-05-28T00:35:44;10.15;;;2.50;;
773;SDS011;370;48.810;9.150;2023-05-28T00:38:12;4.20;;;2.08;;
773;SDS011;370;48.810;9.150;2023-05-28T00:40:43;7.47;;;2.85;;
773;SDS011;370;48.810;9.150;2023-05-28T00:43:10;4.35;;;2.47;;
773;SDS011;370;48.810;9.150;2023-05-28T00:45:38;3.00;;;1.88;;
773;SDS011;370;48.810;9.150;2023-05-28T00:48:06;7.43;;;3.28;;
773;SDS011;370;48.810;9.150;2023-05-28T00:50:34;6.63;;;2.30;;
773;SDS011;370;48.810;9.150;2023-05-28T00:53:24;10.10;;;2.17;;
773;SDS011;370;48.810;9.150;2023-05-28T00:56:25;7.88;;;2.10;;
773;SDS011;370;48.810;9.150;2023-05-28T00:59:09;6.70;;;2.60;;
773;SDS011;370;48.810;9.150;2023-05-28T01:01:54;5.63;;;2.58;;
773;SDS011;370;48.810;9.150;2023-05-28T01:07:35;7.53;;;2.58;;
773;SDS011;370;48.810;9.150;2023-05-28T01:10:05;4.25;;;2.53;;
773;SDS011;370;48.810;9.150;2023-05-28T01:12:34;9.35;;;2.55;;
773;SDS011;370;48.810;9.150;2023-05-28T01:15:14;10.35;;;2.78;;
773;SDS011;370;48.810;9.150;2023-05-28T01:17:49;4.20;;;1.95;;
773;SDS011;370;48.810;9.150;2023-05-28T01:20:28;3.22;;;1.85;;
773;SDS011;370;48.810;9.150;2023-05-28T01:23:20;6.40;;;1.88;;
773;SDS011;370;48.810;9.150;2023-05-28T01:25:55;6.07;;;2.28;;
773;SDS011;370;48.810;9.150;2023-05-28T01:28:25;4.88;;;2.83;;
773;SDS011;370;48.810;9.150;2023-05-28T01:30:57;6.05;;;2.50;;
773;SDS011;370;48.810;9.150;2023-05-28T01:33:27;14.63;;;2.20;;
773;SDS011;370;48.810;9.150;2023-05-28T01:36:01;4.80;;;2.47;;
773;SDS011;370;48.810;9.150;2023-05-28T01:38:32;3.50;;;2.10;;
773;SDS011;370;48.810;9.150;2023-05-28T01:41:10;6.22;;;2.38;;
773;SDS011;370;48.810;9.150;2023-05-28T01:43:41;3.63;;;2.45;;
773;SDS011;370;48.810;9.150;2023-05-28T01:46:11;7.70;;;2.08;;
773;SDS011;370;48.810;9.150;2023-05-28T01:48:43;5.30;;;1.70;;
773;SDS011;370;48.810;9.150;2023-05-28T01:51:17;4.88;;;2.50;;
773;SDS011;370;48.810;9.150;2023-05-28T01:53:54;5.30;;;2.35;;
773;SDS011;370;48.810;9.150;2023-05-28T01:56:32;6.90;;;2.28;;
773;SDS011;370;48.810;9.150;2023-05-28T01:58:59;6.05;;;1.88;;
773;SDS011;370;48.810;9.150;2023-05-28T02:01:34;8.00;;;2.40;;
773;SDS011;370;48.810;9.150;2023-05-28T02:04:13;9.77;;;2.55;;
773;SDS011;370;48.810;9.150;2023-05-28T02:07:02;5.00;;;2.15;;
773;SDS011;370;48.810;9.150;2023-05-28T02:10:30;10.43;;;1.98;;
773;SDS011;370;48.810;9.150;2023-05-28T02:12:52;4.32;;;2.03;;
773;SDS011;370;48.810;9.150;2023-05-28T02:15:19;3.13;;;2.13;;
773;SDS011;370;48.810;9.150;2023-05-28T02:17:51;6.78;;;1.90;;
773;SDS011;370;48.810;9.150;2023-05-28T02:20:43;15.02;;;3.20;;
773;SDS011;370;48.810;9.150;2023-05-28T02:23:13;5.60;;;2.97;;
773;SDS011;370;48.810;9.150;2023-05-28T02:25:54;7.47;;;2.55;;
773;SDS011;370;48.810;9.150;2023-05-28T02:28:31;10.75;;;3.17;;
773;SDS011;370;48.810;9.150;2023-05-28T02:30:59;2.80;;;1.90;;
773;SDS011;370;48.810;9.150;2023-05-28T02:33:26;18.05;;;2.55;;
773;SDS011;370;48.810;9.150;2023-05-28T02:35:53;6.20;;;2.70;;
773;SDS011;370;48.810;9.150;2023-05-28T02:38:25;2.83;;;2.33;;
773;SDS011;370;48.810;9.150;2023-05-28T02:40:57;5.28;;;2.00;;
773;SDS011;370;48.810;9.150;2023-05-28T02:43:26;5.20;;;2.28;;
773;SDS011;370;48.810;9.150;2023-05-28T02:45:58;3.45;;;2.05;;
773;SDS011;370;48.810;9.150;2023-05-28T02:48:25;7.13;;;2.72;;
773;SDS011;370;48.810;9.150;2023-05-28T02:50:52;3.38;;;2.10;;
773;SDS011;370;48.810;9.150;2023-05-28T02:53:19;5.82;;;2.35;;
773;SDS011;370;48.810;9.150;2023-05-28T02:56:02;5.30;;;2.40;;
773;SDS011;370;48.810;9.150;2023-05-28T02:58:29;3.70;;;2.20;;
773;SDS011;370;48.810;9.150;2023-05-28T03:00:58;4.65;;;2.78;;
773;SDS011;370;48.810;9.150;2023-05-28T03:03:25;11.48;;;2.97;;
773;SDS011;370;48.810;9.150;2023-05-28T03:05:52;10.43;;;2.35;;
773;SDS011;370;48.810;9.150;2023-05-28T03:08:19;9.75;;;2.63;;
773;SDS011;370;48.810;9.150;2023-05-28T03:10:47;5.47;;;2.80;;
773;SDS011;370;48.810;9.150;2023-05-28T03:13:14;3.20;;;2.28;;
773;SDS011;370;48.810;9.150;2023-05-28T03:15:41;9.65;;;2.95;;
773;SDS011;370;48.810;9.150;2023-05-28T03:18:09;2.70;;;1.90;;
773;SDS011;370;48.810;9.150;2023-05-28T03:20:36;6.45;;;2.40;;
773;SDS011;370;48.810;9.150;2023-05-28T03:23:03;4.45;;;1.88;;
773;SDS011;370;48.810;9.150;2023-05-28T03:25:42;9.23;;;2.58;;
773;SDS011;370;48.810;9.150;2023-05-28T03:28:10;2.55;;;1.75;;
773;SDS011;370;48.810;9.150;2023-05-28T03:30:37;3.17;;;2.42;;
773;SDS011;370;48.810;9.150;2023-05-28T03:33:04;8.23;;;2.50;;
773;SDS011;370;48.810;9.150;2023-05-28T03:35:32;4.07;;;1.80;;
773;SDS011;370;48.810;9.150;2023-05-28T03:37:59;7.75;;;1.92;;
773;SDS011;370;48.810;9.150;2023-05-28T03:40:26;8.52;;;2.35;;
773;SDS011;370;48.810;9.150;2023-05-28T03:42:52;4.13;;;2.20;;
773;SDS011;370;48.810;9.150;2023-05-28T03:45:19;6.93;;;2.35;;
773;SDS011;370;48.810;9.150;2023-05-28T03:47:46;5.68;;;2.80;;
773;SDS011;370;48.810;9.150;2023-05-28T03:50:12;8.85;;;2.10;;
773;SDS011;370;48.810;9.150;2023-05-28T03:52:41;3.10;;;2.10;;
773;SDS011;370;48.810;9.150;2023-05-28T03:55:08;4.65;;;2.25;;
773;SDS011;370;48.810;9.150;2023-05-28T03:57:35;3.47;;;2.03;;
773;SDS011;370;48.810;9.150;2023-05-28T04:00:02;4.93;;;2.00;;
773;SDS011;370;48.810;9.150;2023-05-28T04:02:47;5.38;;;2.55;;
773;SDS011;370;48.810;9.150;2023-05-28T04:05:14;5.63;;;2.85;;
773;SDS011;370;48.810;9.150;2023-05-28T04:07:43;9.65;;;3.25;;
773;SDS011;370;48.810;9.150;2023-05-28T04:10:10;6.82;;;2.60;;
773;SDS011;370;48.810;9.150;2023-05-28T04:12:37;7.93;;;2.60;;
773;SDS011;370;48.810;9.150;2023-05-28T04:15:04;9.65;;;2.38;;
773;SDS011;370;48.810;9.150;2023-05-28T04:17:33;8.90;;;3.38;;
773;SDS011;370;48.810;9.150;2023-05-28T04:20:00;6.03;;;3.10;;
773;SDS011;370;48.810;9.150;2023-05-28T04:22:29;4.43;;;2.25;;
773;SDS011;370;48.810;9.150;2023-05-28T04:24:57;5.20;;;2.45;;
773;SDS011;370;48.810;9.150;2023-05-28T04:27:24;5.55;;;2.88;;
773;SDS011;370;48.810;9.150;2023-05-28T04:29:51;4.82;;;2.60;;
773;SDS011;370;48.810;9.150;2023-05-28T04:32:20;5.03;;;2.33;;
773;SDS011;370;48.810;9.150;2023-05-28T04:34:47;7.78;;;3.58;;
773;SDS011;370;48.810;9.150;2023-05-28T04:37:16;11.63;;;3.65;;
773;SDS011;370;48.810;9.150;2023-05-28T04:39:44;7.15;;;2.70;;
773;SDS011;370;48.810;9.150;2023-05-28T04:42:12;5.60;;;3.20;;
773;SDS011;370;48.810;9.150;2023-05-28T04:44:42;3.47;;;2.50;;
773;SDS011;370;48.810;9.150;2023-05-28T04:47:11;7.78;;;2.88;;
773;SDS011;370;48.810;9.150;2023-05-28T04:49:39;6.57;;;2.80;;
773;SDS011;370;48.810;9.150;2023-05-28T04:52:07;4.88;;;2.33;;
773;SDS011;370;48.810;9.150;2023-05-28T04:54:35;16.08;;;3.28;;
773;SDS011;370;48.810;9.150;2023-05-28T04:57:01;4.07;;;2.13;;
773;SDS011;370;48.810;9.150;2023-05-28T04:59:31;5.55;;;3.10;;
773;SDS011;370;48.810;9.150;2023-05-28T05:01:59;10.00;;;3.60;;
773;SDS011;370;48.810;9.150;2023-05-28T05:04:26;2.95;;;1.98;;
773;SDS011;370;48.810;9.150;2023-05-28T05:06:52;7.57;;;3.50;;
773;SDS011;370;48.810;9.150;2023-05-28T05:09:20;8.40;;;3.20;;
773;SDS011;370;48.810;9.150;2023-05-28T05:11:48;5.00;;;2.70;;
773;SDS011;370;48.810;9.150;2023-05-28T05:14:15;5.78;;;2.03;;
773;SDS011;370;48.810;9.150;2023-05-28T05:16:43;6.45;;;2.53;;
773;SDS011;370;48.810;9.150;2023-05-28T05:19:11;5.72;;;3.15;;
773;SDS011;370;48.810;9.150;2023-05-28T05:21:38;6.88;;;2.35;;
773;SDS011;370;48.810;9.150;2023-05-28T05:24:05;4.85;;;2.42;;
773;SDS011;370;48.810;9.150;2023-05-28T05:26:32;11.88;;;3.15;;
773;SDS011;370;48.810;9.150;2023-05-28T05:28:59;7.78;;;2.47;;
773;SDS011;370;48.810;9.150;2023-05-28T05:31:26;4.65;;;2.60;;
773;SDS011;370;48.810;9.150;2023-05-28T05:33:55;7.72;;;3.33;;
773;SDS011;370;48.810;9.150;2023-05-28T05:36:22;8.82;;;2.70;;
773;SDS011;370;48.810;9.150;2023-05-28T05:38:49;9.68;;;3.78;;
773;SDS011;370;48.810;9.150;2023-05-28T05:41:16;12.48;;;3.33;;
773;SDS011;370;48.810;9.150;2023-05-28T05:43:43;11.98;;;2.33;;
773;SDS011;370;48.810;9.150;2023-05-28T05:46:10;7.15;;;2.60;;
773;SDS011;370;48.810;9.150;2023-05-28T05:48:37;8.30;;;3.03;;
773;SDS011;370;48.810;9.150;2023-05-28T05:51:08;3.85;;;2.40;;
773;SDS011;370;48.810;9.150;2023-05-28T05:53:41;11.10;;;3.60;;
773;SDS011;370;48.810;9.150;2023-05-28T05:56:09;10.50;;;2.80;;
773;SDS011;370;48.810;9.150;2023-05-28T05:58:36;9.73;;;2.63;;
773;SDS011;370;48.810;9.150;2023-05-28T06:01:08;15.35;;;3.63;;
773;SDS011;370;48.810;9.150;2023-05-28T06:03:35;12.80;;;2.95;;
773;SDS011;370;48.810;9.150;2023-05-28T06:06:02;4.35;;;2.83;;
773;SDS011;370;48.810;9.150;2023-05-28T06:08:34;14.18;;;3.42;;
773;SDS011;370;48.810;9.150;2023-05-28T06:11:02;9.00;;;3.20;;
773;SDS011;370;48.810;9.150;2023-05-28T06:13:36;5.28;;;2.70;;
773;SDS011;370;48.810;9.150;2023-05-28T06:16:16;12.77;;;3.35;;
773;SDS011;370;48.810;9.150;2023-05-28T06:18:56;9.40;;;3.15;;
773;SDS011;370;48.810;9.150;2023-05-28T06:21:31;5.50;;;2.47;;
773;SDS011;370;48.810;9.150;2023-05-28T06:24:05;6.63;;;3.33;;
773;SDS011;370;48.810;9.150;2023-05-28T06:26:48;8.17;;;2.67;;
773;SDS011;370;48.810;9.150;2023-05-28T06:29:18;6.35;;;2.90;;
773;SDS011;370;48.810;9.150;2023-05-28T06:31:50;9.20;;;2.90;;
773;SDS011;370;48.810;9.150;2023-05-28T06:34:24;10.70;;;2.70;;
773;SDS011;370;48.810;9.150;2023-05-28T06:37:16;8.50;;;3.20;;
773;SDS011;370;48.810;9.150;2023-05-28T06:42:42;15.60;;;2.30;;
773;SDS011;370;48.810;9.150;2023-05-28T06:45:19;4.40;;;2.83;;
773;SDS011;370;48.810;9.150;2023-05-28T06:47:53;7.23;;;2.70;;
773;SDS011;370;48.810;9.150;2023-05-28T06:53:43;11.00;;;2.50;;
773;SDS011;370;48.810;9.150;2023-05-28T06:56:25;9.73;;;3.03;;
773;SDS011;370;48.810;9.150;2023-05-28T07:02:03;6.00;;;2.33;;
773;SDS011;370;48.810;9.150;2023-05-28T07:05:04;10.30;;;2.43;;
773;SDS011;370;48.810;9.150;2023-05-28T07:07:32;4.20;;;2.47;;
773;SDS011;370;48.810;9.150;2023-05-28T07:09:59;6.80;;;3.10;;
773;SDS011;370;48.810;9.150;2023-05-28T07:12:27;4.60;;;2.50;;
773;SDS011;370;48.810;9.150;2023-05-28T07:14:54;6.97;;;2.60;;
773;SDS011;370;48.810;9.150;2023-05-28T07:17:21;7.20;;;3.20;;
773;SDS011;370;48.810;9.150;2023-05-28T07:19:55;7.97;;;3.30;;
773;SDS011;370;48.810;9.150;2023-05-28T07:22:22;10.00;;;3.10;;
773;SDS011;370;48.810;9.150;2023-05-28T07:24:52;5.93;;;3.10;;
773;SDS011;370;48.810;9.150;2023-05-28T07:27:22;4.57;;;2.80;;
773;SDS011;370;48.810;9.150;2023-05-28T07:29:51;6.93;;;3.30;;
773;SDS011;370;48.810;9.150;2023-05-28T07:32:21;8.07;;;3.67;;
773;SDS011;370;48.810;9.150;2023-05-28T07:34:48;9.07;;;3.03;;
773;SDS011;370;48.810;9.150;2023-05-28T07:40:52;8.30;;;3.50;;
773;SDS011;370;48.810;9.150;2023-05-28T07:43:18;6.13;;;3.17;;
773;SDS011;370;48.810;9.150;2023-05-28T07:45:52;6.77;;;2.90;;
773;SDS011;370;48.810;9.150;2023-05-28T07:51:03;6.20;;;3.33;;
773;SDS011;370;48.810;9.150;2023-05-28T07:53:30;8.00;;;2.80;;
773;SDS011;370;48.810;9.150;2023-05-28T07:55:57;5.10;;;2.90;;
773;SDS011;370;48.810;9.150;2023-05-28T07:58:25;10.17;;;3.57;;
773;SDS011;370;48.810;9.150;2023-05-28T08:00:53;5.80;;;3.43;;
773;SDS011;370;48.810;9.150;2023-05-28T08:03:20;7.40;;;3.87;;
773;SDS011;370;48.810;9.150;2023-05-28T08:05:49;12.17;;;4.30;;
773;SDS011;370;48.810;9.150;2023-05-28T08:08:21;7.40;;;4.17;;
773;SDS011;370;48.810;9.150;2023-05-28T08:10:56;5.10;;;3.60;;
773;SDS011;370;48.810;9.150;2023-05-28T08:13:23;6.30;;;4.13;;
773;SDS011;370;48.810;9.150;2023-05-28T08:15:50;7.33;;;3.47;;
773;SDS011;370;48.810;9.150;2023-05-28T08:18:18;11.70;;;4.90;;
773;SDS011;370;48.810;9.150;2023-05-28T08:20:45;6.00;;;4.03;;
773;SDS011;370;48.810;9.150;2023-05-28T08:23:12;6.80;;;3.77;;
773;SDS011;370;48.810;9.150;2023-05-28T08:25:39;6.40;;;3.60;;
773;SDS011;370;48.810;9.150;2023-05-28T08:28:06;14.10;;;4.23;;
773;SDS011;370;48.810;9.150;2023-05-28T08:30:34;6.63;;;3.60;;
773;SDS011;370;48.810;9.150;2023-05-28T08:33:01;8.40;;;4.00;;
773;SDS011;370;48.810;9.150;2023-05-28T08:35:29;8.17;;;4.27;;
773;SDS011;370;48.810;9.150;2023-05-28T08:37:56;15.90;;;4.70;;
773;SDS011;370;48.810;9.150;2023-05-28T08:40:23;8.73;;;4.17;;
773;SDS011;370;48.810;9.150;2023-05-28T08:42:51;7.47;;;3.50;;
773;SDS011;370;48.810;9.150;2023-05-28T08:45:19;8.10;;;3.80;;
773;SDS011;370;48.810;9.150;2023-05-28T08:47:47;14.90;;;4.40;;
773;SDS011;370;48.810;9.150;2023-05-28T08:50:16;4.03;;;3.33;;
773;SDS011;370;48.810;9.150;2023-05-28T08:52:45;5.90;;;4.10;;
773;SDS011;370;48.810;9.150;2023-05-28T08:55:14;8.10;;;4.17;;
773;SDS011;370;48.810;9.150;2023-05-28T08:57:41;9.00;;;4.10;;
773;SDS011;370;48.810;9.150;2023-05-28T09:00:11;7.70;;;4.30;;
773;SDS011;370;48.810;9.150;2023-05-28T09:02:39;5.90;;;3.90;;
773;SDS011;370;48.810;9.150;2023-05-28T09:05:06;6.20;;;4.20;;
773;SDS011;370;48.810;9.150;2023-05-28T09:07:33;6.80;;;4.27;;
773;SDS011;370;48.810;9.150;2023-05-28T09:10:02;10.70;;;4.60;;
773;SDS011;370;48.810;9.150;2023-05-28T09:12:30;9.90;;;4.20;;
773;SDS011;370;48.810;9.150;2023-05-28T09:14:57;10.80;;;4.07;;
773;SDS011;370;48.810;9.150;2023-05-28T09:17:33;11.00;;;4.67;;
773;SDS011;370;48.810;9.150;2023-05-28T09:20:01;5.50;;;3.50;;
773;SDS011;370;48.810;9.150;2023-05-28T09:22:35;6.27;;;4.00;;
773;SDS011;370;48.810;9.150;2023-05-28T09:25:04;8.20;;;4.80;;
773;SDS011;370;48.810;9.150;2023-05-28T09:27:33;11.93;;;3.80;;
773;SDS011;370;48.810;9.150;2023-05-28T09:30:01;7.57;;;4.50;;
773;SDS011;370;48.810;9.150;2023-05-28T09:32:30;4.20;;;3.63;;
773;SDS011;370;48.810;9.150;2023-05-28T09:34:59;7.53;;;4.57;;
773;SDS011;370;48.810;9.150;2023-05-28T09:37:27;6.80;;;4.47;;
773;SDS011;370;48.810;9.150;2023-05-28T09:39:59;4.97;;;3.80;;
773;SDS011;370;48.810;9.150;2023-05-28T09:42:34;11.27;;;4.53;;
773;SDS011;370;48.810;9.150;2023-05-28T09:45:04;8.90;;;3.60;;
773;SDS011;370;48.810;9.150;2023-05-28T09:47:32;4.60;;;3.43;;
773;SDS011;370;48.810;9.150;2023-05-28T09:49:59;10.27;;;4.30;;
773;SDS011;370;48.810;9.150;2023-05-28T09:52:26;10.00;;;4.10;;
773;SDS011;370;48.810;9.150;2023-05-28T09:54:54;7.07;;;4.27;;
773;SDS011;370;48.810;9.150;2023-05-28T09:57:24;7.67;;;4.70;;
773;SDS011;370;48.810;9.150;2023-05-28T09:59:54;6.23;;;3.90;;
773;SDS011;370;48.810;9.150;2023-05-28T10:02:24;13.37;;;4.80;;
773;SDS011;370;48.810;9.150;2023-05-28T10:04:59;5.77;;;4.63;;
773;SDS011;370;48.810;9.150;2023-05-28T10:07:28;17.07;;;4.70;;
773;SDS011;370;48.810;9.150;2023-05-28T10:09:55;4.87;;;3.73;;
773;SDS011;370;48.810;9.150;2023-05-28T10:12:27;11.03;;;4.77;;
773;SDS011;370;48.810;9.150;2023-05-28T10:14:57;12.03;;;4.70;;
773;SDS011;370;48.810;9.150;2023-05-28T10:17:24;5.87;;;3.93;;
773;SDS011;370;48.810;9.150;2023-05-28T10:19:51;6.10;;;4.33;;
773;SDS011;370;48.810;9.150;2023-05-28T10:22:19;9.70;;;4.70;;
773;SDS011;370;48.810;9.150;2023-05-28T10:24:47;8.27;;;4.60;;
773;SDS011;370;48.810;9.150;2023-05-28T10:27:15;19.50;;;4.90;;
773;SDS011;370;48.810;9.150;2023-05-28T10:29:44;6.70;;;4.43;;
773;SDS011;370;48.810;9.150;2023-05-28T10:32:14;12.20;;;4.70;;
773;SDS011;370;48.810;9.150;2023-05-28T10:34:43;5.30;;;4.10;;
773;SDS011;370;48.810;9.150;2023-05-28T10:37:11;7.50;;;4.90;;
773;SDS011;370;48.810;9.150;2023-05-28T10:39:42;7.03;;;4.67;;
773;SDS011;370;48.810;9.150;2023-05-28T10:42:13;6.27;;;3.93;;
773;SDS011;370;48.810;9.150;2023-05-28T10:47:34;11.00;;;4.97;;
773;SDS011;370;48.810;9.150;2023-05-28T10:50:12;6.60;;;4.63;;
773;SDS011;370;48.810;9.150;2023-05-28T10:52:40;7.40;;;5.50;;
773;SDS011;370;48.810;9.150;2023-05-28T10:55:10;7.10;;;4.80;;
773;SDS011;370;48.810;9.150;2023-05-28T10:57:39;8.13;;;5.20;;
773;SDS011;370;48.810;9.150;2023-05-28T11:00:08;8.10;;;5.00;;
773;SDS011;370;48.810;9.150;2023-05-28T11:02:40;9.57;;;4.33;;
773;SDS011;370;48.810;9.150;2023-05-28T11:05:08;6.50;;;5.27;;
773;SDS011;370;48.810;9.150;2023-05-28T11:07:35;8.87;;;4.60;;
773;SDS011;370;48.810;9.150;2023-05-28T11:10:04;7.37;;;5.23;;
773;SDS011;370;48.810;9.150;2023-05-28T11:12:34;7.43;;;4.80;;
773;SDS011;370;48.810;9.150;2023-05-28T11:15:02;6.50;;;5.13;;
773;SDS011;370;48.810;9.150;2023-05-28T11:17:29;10.17;;;4.90;;
773;SDS011;370;48.810;9.150;2023-05-28T11:20:02;5.83;;;4.80;;
773;SDS011;370;48.810;9.150;2023-05-28T11:22:32;9.80;;;5.27;;
773;SDS011;370;48.810;9.150;2023-05-28T11:25:03;7.80;;;4.80;;
773;SDS011;370;48.810;9.150;2023-05-28T11:27:31;6.97;;;4.07;;
773;SDS011;370;48.810;9.150;2023-05-28T11:30:00;6.07;;;4.63;;
773;SDS011;370;48.810;9.150;2023-05-28T11:32:31;6.17;;;5.50;;
773;SDS011;370;48.810;9.150;2023-05-28T11:34:58;6.40;;;5.10;;
773;SDS011;370;48.810;9.150;2023-05-28T11:37:27;7.07;;;5.23;;
773;SDS011;370;48.810;9.150;2023-05-28T11:39:57;8.77;;;5.33;;
773;SDS011;370;48.810;9.150;2023-05-28T11:42:26;7.33;;;5.27;;
773;SDS011;370;48.810;9.150;2023-05-28T11:44:54;9.10;;;5.20;;
773;SDS011;370;48.810;9.150;2023-05-28T11:47:23;5.70;;;4.60;;
773;SDS011;370;48.810;9.150;2023-05-28T11:49:51;6.23;;;4.73;;
773;SDS011;370;48.810;9.150;2023-05-28T11:52:19;5.70;;;4.90;;
773;SDS011;370;48.810;9.150;2023-05-28T11:54:52;6.57;;;5.27;;
773;SDS011;370;48.810;9.150;2023-05-28T11:57:20;5.80;;;4.73;;
773;SDS011;370;48.810;9.150;2023-05-28T11:59:54;6.37;;;4.80;;
773;SDS011;370;48.810;9.150;2023-05-28T12:02:24;8.80;;;5.80;;
773;SDS011;370;48.810;9.150;2023-05-28T12:04:58;9.57;;;5.67;;
773;SDS011;370;48.810;9.150;2023-05-28T12:07:29;5.23;;;4.10;;
773;SDS011;370;48.810;9.150;2023-05-28T12:10:02;7.00;;;4.67;;
773;SDS011;370;48.810;9.150;2023-05-28T12:12:31;4.63;;;3.73;;
773;SDS011;370;48.810;9.150;2023-05-28T12:14:58;10.57;;;5.17;;
773;SDS011;370;48.810;9.150;2023-05-28T12:17:28;6.90;;;5.00;;
773;SDS011;370;48.810;9.150;2023-05-28T12:20:02;10.40;;;6.10;;
773;SDS011;370;48.810;9.150;2023-05-28T12:22:31;7.50;;;5.37;;
773;SDS011;370;48.810;9.150;2023-05-28T12:24:58;6.00;;;4.70;;
773;SDS011;370;48.810;9.150;2023-05-28T12:27:28;7.57;;;4.50;;
773;SDS011;370;48.810;9.150;2023-05-28T12:29:58;8.87;;;5.37;;
773;SDS011;370;48.810;9.150;2023-05-28T12:32:26;6.20;;;4.20;;
773;SDS011;370;48.810;9.150;2023-05-28T12:34:53;6.63;;;4.33;;
773;SDS011;370;48.810;9.150;2023-05-28T12:37:21;5.90;;;4.40;;
773;SDS011;370;48.810;9.150;2023-05-28T12:39:48;7.57;;;4.90;;
773;SDS011;370;48.810;9.150;2023-05-28T12:42:15;7.03;;;4.30;;
773;SDS011;370;48.810;9.150;2023-05-28T12:44:43;8.60;;;4.53;;
773;SDS011;370;48.810;9.150;2023-05-28T12:47:11;11.90;;;4.93;;
773;SDS011;370;48.810;9.150;2023-05-28T12:49:38;6.87;;;5.00;;
773;SDS011;370;48.810;9.150;2023-05-28T12:52:04;9.47;;;4.87;;
773;SDS011;370;48.810;9.150;2023-05-28T12:54:32;15.40;;;4.93;;
773;SDS011;370;48.810;9.150;2023-05-28T12:56:59;6.53;;;4.53;;
773;SDS011;370;48.810;9.150;2023-05-28T12:59:27;11.33;;;4.73;;
773;SDS011;370;48.810;9.150;2023-05-28T13:01:56;7.77;;;4.40;;
773;SDS011;370;48.810;9.150;2023-05-28T13:04:24;6.37;;;4.70;;
773;SDS011;370;48.810;9.150;2023-05-28T13:06:50;6.70;;;4.80;;
773;SDS011;370;48.810;9.150;2023-05-28T13:09:18;6.83;;;4.67;;
773;SDS011;370;48.810;9.150;2023-05-28T13:11:45;8.17;;;5.00;;
773;SDS011;370;48.810;9.150;2023-05-28T13:14:12;14.17;;;5.20;;
773;SDS011;370;48.810;9.150;2023-05-28T13:16:39;10.43;;;4.97;;
773;SDS011;370;48.810;9.150;2023-05-28T13:19:07;9.10;;;5.60;;
773;SDS011;370;48.810;9.150;2023-05-28T13:21:34;8.03;;;5.07;;
773;SDS011;370;48.810;9.150;2023-05-28T13:24:01;6.53;;;4.87;;
773;SDS011;370;48.810;9.150;2023-05-28T13:26:29;7.60;;;4.70;;
773;SDS011;370;48.810;9.150;2023-05-28T13:28:59;6.20;;;4.67;;
773;SDS011;370;48.810;9.150;2023-05-28T13:31:25;5.80;;;4.43;;
773;SDS011;370;48.810;9.150;2023-05-28T13:33:52;14.00;;;4.77;;
773;SDS011;370;48.810;9.150;2023-05-28T13:36:20;7.30;;;4.20;;
773;SDS011;370;48.810;9.150;2023-05-28T13:38:47;6.77;;;3.83;;
773;SDS011;370;48.810;9.150;2023-05-28T13:41:14;11.70;;;4.40;;
773;SDS011;370;48.810;9.150;2023-05-28T13:43:41;7.60;;;4.67;;
773;SDS011;370;48.810;9.150;2023-05-28T13:46:08;5.67;;;3.53;;
773;SDS011;370;48.810;9.150;2023-05-28T13:48:35;10.20;;;4.30;;
773;SDS011;370;48.810;9.150;2023-05-28T13:51:02;6.03;;;4.30;;
773;SDS011;370;48.810;9.150;2023-05-28T13:53:31;6.00;;;3.80;;
773;SDS011;370;48.810;9.150;2023-05-28T13:55:57;7.70;;;4.60;;
773;SDS011;370;48.810;9.150;2023-05-28T13:58:24;12.10;;;4.40;;
773;SDS011;370;48.810;9.150;2023-05-28T14:00:52;6.30;;;3.57;;
773;SDS011;370;48.810;9.150;2023-05-28T14:03:18;5.20;;;3.93;;
773;SDS011;370;48.810;9.150;2023-05-28T14:05:45;6.83;;;4.00;;
773;SDS011;370;48.810;9.150;2023-05-28T14:08:12;6.83;;;4.03;;
773;SDS011;370;48.810;9.150;2023-05-28T14:10:40;5.70;;;4.10;;
773;SDS011;370;48.810;9.150;2023-05-28T14:13:07;9.80;;;3.63;;
773;SDS011;370;48.810;9.150;2023-05-28T14:15:34;5.17;;;3.40;;
773;SDS011;370;48.810;9.150;2023-05-28T14:18:00;7.17;;;4.40;;
773;SDS011;370;48.810;9.150;2023-05-28T14:20:27;7.07;;;3.90;;
773;SDS011;370;48.810;9.150;2023-05-28T14:22:59;4.90;;;3.80;;
773;SDS011;370;48.810;9.150;2023-05-28T14:25:26;5.57;;;4.13;;
773;SDS011;370;48.810;9.150;2023-05-28T14:27:54;9.43;;;4.07;;
773;SDS011;370;48.810;9.150;2023-05-28T14:30:22;9.87;;;4.17;;
773;SDS011;370;48.810;9.150;2023-05-28T14:32:48;6.67;;;3.77;;
773;SDS011;370;48.810;9.150;2023-05-28T14:35:15;6.53;;;3.90;;
773;SDS011;370;48.810;9.150;2023-05-28T14:37:43;5.87;;;4.00;;
773;SDS011;370;48.810;9.150;2023-05-28T14:40:11;5.50;;;4.27;;
773;SDS011;370;48.810;9.150;2023-05-28T14:42:38;7.73;;;4.80;;
773;SDS011;370;48.810;9.150;2023-05-28T14:45:06;8.57;;;4.60;;
773;SDS011;370;48.810;9.150;2023-05-28T14:47:33;5.70;;;4.10;;
773;SDS011;370;48.810;9.150;2023-05-28T14:50:00;5.97;;;4.10;;
773;SDS011;370;48.810;9.150;2023-05-28T14:52:28;8.57;;;3.70;;
773;SDS011;370;48.810;9.150;2023-05-28T14:54:57;8.47;;;4.17;;
773;SDS011;370;48.810;9.150;2023-05-28T14:57:25;13.13;;;4.27;;
773;SDS011;370;48.810;9.150;2023-05-28T14:59:53;7.97;;;4.20;;
773;SDS011;370;48.810;9.150;2023-05-28T15:02:25;9.57;;;4.27;;
773;SDS011;370;48.810;9.150;2023-05-28T15:04:52;5.43;;;3.80;;
773;SDS011;370;48.810;9.150;2023-05-28T15:07:19;7.40;;;3.60;;
773;SDS011;370;48.810;9.150;2023-05-28T15:09:46;7.77;;;3.63;;
773;SDS011;370;48.810;9.150;2023-05-28T15:12:12;5.93;;;3.60;;
773;SDS011;370;48.810;9.150;2023-05-28T15:14:39;8.53;;;3.97;;
773;SDS011;370;48.810;9.150;2023-05-28T15:17:06;6.00;;;3.50;;
773;SDS011;370;48.810;9.150;2023-05-28T15:19:34;14.00;;;4.37;;
773;SDS011;370;48.810;9.150;2023-05-28T15:22:01;6.00;;;4.00;;
773;SDS011;370;48.810;9.150;2023-05-28T15:24:28;9.87;;;3.87;;
773;SDS011;370;48.810;9.150;2023-05-28T15:26:56;8.13;;;3.90;;
773;SDS011;370;48.810;9.150;2023-05-28T15:29:23;6.43;;;3.40;;
773;SDS011;370;48.810;9.150;2023-05-28T15:31:50;9.83;;;4.33;;
773;SDS011;370;48.810;9.150;2023-05-28T15:34:18;6.83;;;3.57;;
773;SDS011;370;48.810;9.150;2023-05-28T15:36:47;6.90;;;4.40;;
773;SDS011;370;48.810;9.150;2023-05-28T15:39:14;9.87;;;4.40;;
773;SDS011;370;48.810;9.150;2023-05-28T15:41:41;8.20;;;4.17;;
773;SDS011;370;48.810;9.150;2023-05-28T15:44:09;8.77;;;3.57;;
773;SDS011;370;48.810;9.150;2023-05-28T15:46:37;5.73;;;4.03;;
773;SDS011;370;48.810;9.150;2023-05-28T15:49:04;10.23;;;3.63;;
773;SDS011;370;48.810;9.150;2023-05-28T15:51:30;5.97;;;3.60;;
773;SDS011;370;48.810;9.150;2023-05-28T15:53:59;6.40;;;3.73;;
773;SDS011;370;48.810;9.150;2023-05-28T15:56:26;6.80;;;3.73;;
773;SDS011;370;48.810;9.150;2023-05-28T15:58:53;4.83;;;3.07;;
773;SDS011;370;48.810;9.150;2023-05-28T16:01:20;7.07;;;3.80;;
773;SDS011;370;48.810;9.150;2023-05-28T16:03:50;6.47;;;3.53;;
773;SDS011;370;48.810;9.150;2023-05-28T16:06:17;9.30;;;3.47;;
773;SDS011;370;48.810;9.150;2023-05-28T16:08:44;4.70;;;2.83;;
773;SDS011;370;48.810;9.150;2023-05-28T16:11:12;7.60;;;3.50;;
773;SDS011;370;48.810;9.150;2023-05-28T16:13:40;5.23;;;3.60;;
773;SDS011;370;48.810;9.150;2023-05-28T16:16:08;5.30;;;3.60;;
773;SDS011;370;48.810;9.150;2023-05-28T16:18:37;10.83;;;4.30;;